createdAt,value
2018-10-21T00:01:08.078Z,7.00
2018-10-21T00:03:36.630Z,6.95
2018-10-21T00:06:05.189Z,6.90
2018-10-21T00:08:33.731Z,6.86
2018-10-21T00:11:02.301Z,6.86
2018-10-21T00:13:30.880Z,6.73
2018-10-21T00:15:59.475Z,6.61
2018-10-21T00:18:28.014Z,6.54
2018-10-21T00:20:56.645Z,6.44
2018-10-21T00:23:25.237Z,6.45
2018-10-21T00:25:53.809Z,6.44
2018-10-21T00:28:22.364Z,6.40
2018-10-21T00:30:50.963Z,6.40
2018-10-21T00:33:19.519Z,6.44
2018-10-21T00:35:48.308Z,6.36
2018-10-21T00:38:16.878Z,6.30
2018-10-21T00:40:46.432Z,6.22
2018-10-21T00:43:15.625Z,6.16
2018-10-21T00:45:44.814Z,6.06
2018-10-21T00:48:14.353Z,6.05
2018-10-21T00:50:44.466Z,6.03
2018-10-21T00:53:14.651Z,5.98
2018-10-21T00:55:43.392Z,5.95
2018-10-21T00:58:11.999Z,5.91
2018-10-21T01:00:40.556Z,5.96
2018-10-21T01:03:09.181Z,5.89
2018-10-21T01:05:37.795Z,5.79
2018-10-21T01:08:06.463Z,5.75
2018-10-21T01:10:36.059Z,5.64
2018-10-21T01:13:05.540Z,5.60
2018-10-21T01:15:34.974Z,5.62
2018-10-21T01:18:04.464Z,5.55
2018-10-21T01:20:33.920Z,5.49
2018-10-21T01:23:03.339Z,5.45
2018-10-21T01:25:32.830Z,5.41
2018-10-21T01:28:02.258Z,5.37
2018-10-21T01:30:31.697Z,5.39
2018-10-21T01:33:00.244Z,5.34
2018-10-21T01:35:29.827Z,5.34
2018-10-21T01:37:58.581Z,5.37
2018-10-21T01:40:32.971Z,5.42
2018-10-21T01:43:03.005Z,5.43
2018-10-21T01:45:31.585Z,5.35
2018-10-21T01:48:02.291Z,5.33
2018-10-21T01:50:31.666Z,5.33
2018-10-21T01:53:01.241Z,5.35
2018-10-21T01:55:30.736Z,5.33
2018-10-21T01:58:00.417Z,5.37
2018-10-21T02:00:30.418Z,5.31
2018-10-21T02:02:59.320Z,5.30
2018-10-21T02:05:29.295Z,5.43
2018-10-21T02:07:58.744Z,5.37
2018-10-21T02:10:28.334Z,5.52
2018-10-21T02:12:57.075Z,5.43
2018-10-21T02:15:25.808Z,5.28
2018-10-21T02:17:54.386Z,5.23
2018-10-21T02:20:24.504Z,5.11
2018-10-21T02:22:53.196Z,5.04
2018-10-21T02:25:22.762Z,4.99
2018-10-21T02:27:52.028Z,5.01
2018-10-21T02:30:22.762Z,5.07
2018-10-21T02:32:52.013Z,5.17
2018-10-21T02:35:22.063Z,5.07
2018-10-21T02:37:51.140Z,5.02
2018-10-21T02:41:34.801Z,4.98
2018-10-21T02:44:04.023Z,4.92
2018-10-21T02:46:33.989Z,4.84
2018-10-21T02:49:03.267Z,4.91
2018-10-21T02:51:31.925Z,4.92
2018-10-21T02:54:00.514Z,4.81
2018-10-21T02:56:30.147Z,4.80
2018-10-21T02:58:58.788Z,4.88
2018-10-21T03:01:27.414Z,4.76
2018-10-21T03:03:55.960Z,4.68
2018-10-21T03:06:24.771Z,4.64
2018-10-21T03:08:53.305Z,4.70
2018-10-21T03:11:21.854Z,4.63
2018-10-21T03:13:50.438Z,4.54
2018-10-21T03:16:19.005Z,4.56
2018-10-21T03:18:47.855Z,4.69
2018-10-21T03:21:17.367Z,4.78
2018-10-21T03:23:46.549Z,4.64
2018-10-21T03:26:16.599Z,4.61
2018-10-21T03:28:46.061Z,4.60
2018-10-21T03:31:15.343Z,4.77
2018-10-21T03:33:45.511Z,4.67
2018-10-21T03:36:15.661Z,4.48
2018-10-21T03:38:45.651Z,4.39
2018-10-21T03:41:15.614Z,4.28
2018-10-21T03:43:44.523Z,4.27
2018-10-21T03:46:14.901Z,4.22
2018-10-21T03:48:44.574Z,4.14
2018-10-21T03:51:15.549Z,4.01
2018-10-21T03:53:45.772Z,3.92
2018-10-21T03:56:15.962Z,3.90
2018-10-21T03:58:46.116Z,3.89
2018-10-21T04:01:16.766Z,3.89
2018-10-21T04:03:46.015Z,3.82
2018-10-21T04:06:15.737Z,3.87
2018-10-21T04:08:44.317Z,3.87
2018-10-21T04:11:14.785Z,3.86
2018-10-21T04:13:44.234Z,3.75
2018-10-21T04:16:14.448Z,3.66
2018-10-21T04:18:44.588Z,3.67
2018-10-21T04:21:14.694Z,3.78
2018-10-21T04:23:44.300Z,3.83
2018-10-21T04:26:13.925Z,3.74
2018-10-21T04:28:42.499Z,3.78
2018-10-21T04:31:12.141Z,3.76
2018-10-21T04:33:43.174Z,3.70
2018-10-21T04:36:15.145Z,3.75
2018-10-21T04:38:55.014Z,4.02
2018-10-21T04:41:24.604Z,4.03
2018-10-21T04:43:53.194Z,3.93
2018-10-21T04:46:22.558Z,3.79
2018-10-21T04:48:52.110Z,3.74
2018-10-21T04:51:21.558Z,3.60
2018-10-21T04:53:50.215Z,3.52
2018-10-21T04:56:19.778Z,3.45
2018-10-21T04:58:49.233Z,3.48
2018-10-21T05:01:18.676Z,3.47
2018-10-21T05:03:48.154Z,3.49
2018-10-21T05:06:17.710Z,3.46
2018-10-21T05:08:47.205Z,3.36
2018-10-21T05:11:16.319Z,3.29
2018-10-21T05:13:46.712Z,3.20
2018-10-21T05:16:17.362Z,3.13
2018-10-21T05:18:46.883Z,3.11
2018-10-21T05:21:17.356Z,3.21
2018-10-21T05:23:46.694Z,3.20
2018-10-21T05:26:17.278Z,3.15
2018-10-21T05:28:46.862Z,3.04
2018-10-21T05:31:16.382Z,2.95
2018-10-21T05:33:45.874Z,3.00
2018-10-21T05:36:16.232Z,3.04
2018-10-21T05:38:46.087Z,3.08
2018-10-21T05:41:16.506Z,3.11
2018-10-21T05:43:46.891Z,3.29
2018-10-21T05:46:24.504Z,3.34
2018-10-21T05:48:54.073Z,3.23
2018-10-21T05:51:23.620Z,3.14
2018-10-21T05:53:52.194Z,3.32
2018-10-21T05:56:21.952Z,3.31
2018-10-21T05:58:51.419Z,3.29
2018-10-21T06:01:20.838Z,3.25
2018-10-21T06:03:50.446Z,3.47
2018-10-21T06:06:19.145Z,3.47
2018-10-21T06:08:48.668Z,3.55
2018-10-21T06:11:18.102Z,3.52
2018-10-21T06:13:46.646Z,3.59
2018-10-21T06:16:17.347Z,3.55
2018-10-21T06:18:46.934Z,3.52
2018-10-21T06:21:16.080Z,3.46
2018-10-21T06:23:45.649Z,3.44
2018-10-21T06:26:15.806Z,3.50
2018-10-21T06:28:44.362Z,3.48
2018-10-21T06:31:14.013Z,3.56
2018-10-21T06:33:42.681Z,3.71
2018-10-21T06:36:11.606Z,3.71
2018-10-21T06:38:40.183Z,3.65
2018-10-21T06:41:08.689Z,3.74
2018-10-21T06:43:37.234Z,3.79
2018-10-21T06:46:06.240Z,3.86
2018-10-21T06:48:34.905Z,3.98
2018-10-21T06:51:03.516Z,4.13
2018-10-21T06:53:32.058Z,4.28
2018-10-21T06:56:02.555Z,4.39
2018-10-21T06:58:31.166Z,4.41
2018-10-21T07:00:59.726Z,4.46
2018-10-21T07:03:28.357Z,4.63
2018-10-21T07:06:28.698Z,4.64
2018-10-21T07:08:58.583Z,4.68
2018-10-21T07:11:27.145Z,4.87
2018-10-21T07:13:55.868Z,5.00
2018-10-21T07:16:25.239Z,5.01
2018-10-21T07:18:54.773Z,5.16
2018-10-21T07:21:23.346Z,5.18
2018-10-21T07:23:51.932Z,5.23
2018-10-21T07:26:20.413Z,5.28
2018-10-21T07:28:49.997Z,5.25
2018-10-21T07:31:19.607Z,5.31
2018-10-21T07:33:48.195Z,5.34
2018-10-21T07:36:16.897Z,5.40
2018-10-21T07:38:47.462Z,5.59
2018-10-21T07:41:16.889Z,5.76
2018-10-21T07:43:45.774Z,5.82
2018-10-21T07:46:16.316Z,6.01
2018-10-21T07:48:46.660Z,6.18
2018-10-21T07:51:15.994Z,6.30
2018-10-21T07:53:45.548Z,6.47
2018-10-21T07:56:15.880Z,6.60
2018-10-21T07:58:46.412Z,6.71
2018-10-21T08:01:16.958Z,6.82
2018-10-21T08:03:46.503Z,6.98
2018-10-21T08:06:31.904Z,7.22
2018-10-21T08:09:00.519Z,7.25
2018-10-21T08:11:29.880Z,7.42
2018-10-21T08:13:58.604Z,7.50
2018-10-21T08:16:27.188Z,7.69
2018-10-21T08:18:56.048Z,7.84
2018-10-21T08:21:25.483Z,7.96
2018-10-21T08:23:54.060Z,8.03
2018-10-21T08:26:22.613Z,8.18
2018-10-21T08:28:51.157Z,8.37
2018-10-21T08:31:19.704Z,8.59
2018-10-21T08:33:48.250Z,8.73
2018-10-21T08:36:17.114Z,8.87
2018-10-21T08:38:46.714Z,8.97
2018-10-21T08:41:15.844Z,9.05
2018-10-21T08:43:44.432Z,9.12
2018-10-21T08:46:14.782Z,9.20
2018-10-21T08:48:43.392Z,9.27
2018-10-21T08:51:12.257Z,9.26
2018-10-21T08:53:40.910Z,9.43
2018-10-21T08:56:09.484Z,9.58
2018-10-21T08:58:38.128Z,9.73
2018-10-21T09:01:06.975Z,9.84
2018-10-21T09:03:35.661Z,9.84
2018-10-21T09:06:04.239Z,9.95
2018-10-21T09:08:32.953Z,10.14
2018-10-21T09:11:01.881Z,10.27
2018-10-21T09:13:30.552Z,10.34
2018-10-21T09:15:59.172Z,10.44
2018-10-21T09:18:27.891Z,10.52
2018-10-21T09:20:56.464Z,10.75
2018-10-21T09:23:25.031Z,10.71
2018-10-21T09:25:54.619Z,10.75
2018-10-21T09:28:23.980Z,10.91
2018-10-21T09:30:52.647Z,11.02
2018-10-21T09:33:22.271Z,11.13
2018-10-21T09:35:50.886Z,11.23
2018-10-21T09:38:19.440Z,11.32
2018-10-21T09:40:48.017Z,11.47
2018-10-21T09:43:16.626Z,11.59
2018-10-21T09:45:46.517Z,11.66
2018-10-21T09:48:15.923Z,11.78
2018-10-21T09:50:45.264Z,11.92
2018-10-21T09:53:14.688Z,11.90
2018-10-21T09:55:43.272Z,11.96
2018-10-21T09:58:11.978Z,12.07
2018-10-21T10:00:45.751Z,12.04
2018-10-21T10:03:14.424Z,12.10
2018-10-21T10:05:43.212Z,12.28
2018-10-21T10:08:11.760Z,12.40
2018-10-21T10:10:40.307Z,12.44
2018-10-21T10:13:08.842Z,12.48
2018-10-21T10:15:37.431Z,12.61
2018-10-21T10:18:06.321Z,12.76
2018-10-21T10:20:35.007Z,12.82
2018-10-21T10:23:03.822Z,12.84
2018-10-21T10:25:32.318Z,12.72
2018-10-21T10:28:00.907Z,12.80
2018-10-21T10:30:29.627Z,12.84
2018-10-21T10:32:58.194Z,12.91
2018-10-21T10:35:27.773Z,13.14
2018-10-21T10:37:56.491Z,13.10
2018-10-21T10:40:25.047Z,13.09
2018-10-21T10:42:53.951Z,13.33
2018-10-21T10:45:22.520Z,13.49
2018-10-21T10:47:51.154Z,13.54
2018-10-21T10:50:19.749Z,13.59
2018-10-21T10:52:48.389Z,13.77
2018-10-21T10:55:17.249Z,13.52
2018-10-21T10:57:46.677Z,13.59
2018-10-21T11:00:16.841Z,13.46
2018-10-21T11:02:46.126Z,13.65
2018-10-21T11:05:15.471Z,13.67
2018-10-21T11:07:44.964Z,13.71
2018-10-21T11:10:14.298Z,13.77
2018-10-21T11:12:43.692Z,13.69
2018-10-21T11:15:12.376Z,13.84
2018-10-21T11:17:46.195Z,13.96
2018-10-21T11:20:16.686Z,14.05
2018-10-21T11:22:46.415Z,13.94
2018-10-21T11:25:16.960Z,13.96
2018-10-21T11:27:46.289Z,14.14
2018-10-21T11:30:15.904Z,13.80
2018-10-21T11:32:45.553Z,13.88
2018-10-21T11:35:14.490Z,13.78
2018-10-21T11:37:43.445Z,13.91
2018-10-21T11:40:12.090Z,13.72
2018-10-21T11:42:40.592Z,13.82
2018-10-21T11:45:09.235Z,14.00
2018-10-21T11:47:37.940Z,14.12
2018-10-21T11:50:07.749Z,14.23
2018-10-21T11:52:36.340Z,14.42
2018-10-21T11:55:05.214Z,14.57
2018-10-21T11:57:34.800Z,14.73
2018-10-21T12:00:03.491Z,14.82
2018-10-21T12:02:32.060Z,14.81
2018-10-21T12:05:00.634Z,14.76
2018-10-21T12:07:29.227Z,14.66
2018-10-21T12:09:58.874Z,14.62
2018-10-21T12:12:27.473Z,14.67
2018-10-21T12:14:56.372Z,14.69
2018-10-21T12:17:25.001Z,14.77
2018-10-21T12:19:53.655Z,14.86
2018-10-21T12:22:23.418Z,14.98
2018-10-21T12:24:52.687Z,15.09
2018-10-21T12:27:21.263Z,15.16
2018-10-21T12:29:49.830Z,15.01
2018-10-21T12:32:19.387Z,15.19
2018-10-21T12:34:47.958Z,15.30
2018-10-21T12:37:16.491Z,15.50
2018-10-21T12:39:45.848Z,15.40
2018-10-21T12:42:14.422Z,15.23
2018-10-21T12:44:44.553Z,15.28
2018-10-21T12:47:14.592Z,15.00
2018-10-21T12:49:44.730Z,15.04
2018-10-21T12:52:13.434Z,14.85
2018-10-21T12:54:42.074Z,14.74
2018-10-21T12:57:10.676Z,14.80
2018-10-21T12:59:39.270Z,14.83
2018-10-21T13:02:08.804Z,14.92
2018-10-21T13:04:37.509Z,14.87
2018-10-21T13:07:06.337Z,14.89
2018-10-21T13:09:34.896Z,14.77
2018-10-21T13:12:04.525Z,14.64
2018-10-21T13:14:33.108Z,14.63
2018-10-21T13:17:02.653Z,14.69
2018-10-21T13:19:32.275Z,14.66
2018-10-21T13:22:00.964Z,14.70
2018-10-21T13:24:30.578Z,14.67
2018-10-21T13:27:00.198Z,14.63
2018-10-21T13:29:28.769Z,14.63
2018-10-21T13:31:57.335Z,14.54
2018-10-21T13:34:26.261Z,14.42
2018-10-21T13:36:54.851Z,14.45
2018-10-21T13:39:23.412Z,14.38
2018-10-21T13:41:52.896Z,14.31
2018-10-21T13:44:21.475Z,14.19
2018-10-21T13:46:50.089Z,14.18
2018-10-21T13:49:19.548Z,14.12
2018-10-21T13:51:48.135Z,14.06
2018-10-21T13:54:16.850Z,13.96
2018-10-21T13:56:46.314Z,14.08
2018-10-21T13:59:16.054Z,14.01
2018-10-21T14:01:45.297Z,13.93
2018-10-21T14:04:14.844Z,13.91
2018-10-21T14:06:44.268Z,13.85
2018-10-21T14:09:15.314Z,13.96
2018-10-21T14:11:45.012Z,13.99
2018-10-21T14:14:15.433Z,13.91
2018-10-21T14:16:46.097Z,13.97
2018-10-21T14:19:15.681Z,13.91
2018-10-21T14:21:46.277Z,13.83
2018-10-21T14:24:15.106Z,13.78
2018-10-21T14:26:44.311Z,13.63
2018-10-21T14:29:15.045Z,13.54
2018-10-21T14:31:45.589Z,13.44
2018-10-21T14:34:15.884Z,13.49
2018-10-21T14:36:46.104Z,13.44
2018-10-21T14:39:16.256Z,13.36
2018-10-21T14:41:46.628Z,13.29
2018-10-21T14:44:16.608Z,13.25
2018-10-21T14:46:45.815Z,13.18
2018-10-21T14:49:16.026Z,13.17
2018-10-21T14:51:46.622Z,13.17
2018-10-21T14:54:16.706Z,13.19
2018-10-21T14:56:46.356Z,13.05
2018-10-21T14:59:17.029Z,12.92
2018-10-21T15:01:46.563Z,12.90
2018-10-21T15:04:16.654Z,12.78
2018-10-21T15:06:47.304Z,12.65
2018-10-21T15:09:16.893Z,12.56
2018-10-21T15:11:47.434Z,12.43
2018-10-21T15:14:17.040Z,12.33
2018-10-21T15:16:46.098Z,12.22
2018-10-21T15:19:16.787Z,12.14
2018-10-21T15:21:47.319Z,12.02
2018-10-21T15:24:16.543Z,11.86
2018-10-21T15:26:47.001Z,11.75
2018-10-21T15:29:16.664Z,11.64
2018-10-21T15:31:47.721Z,11.52
2018-10-21T15:34:17.247Z,11.39
2018-10-21T15:36:46.906Z,11.29
2018-10-21T15:39:16.045Z,11.17
2018-10-21T15:41:45.496Z,11.05
2018-10-21T15:44:15.129Z,10.94
2018-10-21T15:46:45.374Z,10.87
2018-10-21T15:49:14.450Z,10.87
2018-10-21T15:51:45.046Z,10.78
2018-10-21T15:54:15.512Z,10.61
2018-10-21T15:56:44.264Z,10.45
2018-10-21T15:59:14.130Z,10.37
2018-10-21T16:01:44.339Z,10.31
2018-10-21T16:04:13.335Z,10.20
2018-10-21T16:06:42.228Z,10.14
2018-10-21T16:09:12.716Z,10.04
2018-10-21T16:11:41.437Z,9.92
2018-10-21T16:14:10.038Z,9.81
2018-10-21T16:16:38.657Z,9.70
2018-10-21T16:19:07.515Z,9.60
2018-10-21T16:21:36.125Z,9.51
2018-10-21T16:24:04.802Z,9.41
2018-10-21T16:26:33.527Z,9.33
2018-10-21T16:29:02.152Z,9.26
2018-10-21T16:31:31.046Z,9.15
2018-10-21T16:33:59.663Z,9.08
2018-10-21T16:36:28.199Z,9.04
2018-10-21T16:38:57.622Z,8.97
2018-10-21T16:41:28.388Z,8.91
2018-10-21T16:43:57.995Z,8.86
2018-10-21T16:46:27.434Z,8.81
2018-10-21T16:48:56.851Z,8.78
2018-10-21T16:51:25.738Z,8.71
2018-10-21T16:53:55.428Z,8.64
2018-10-21T16:56:24.897Z,8.54
2018-10-21T16:58:53.843Z,8.49
2018-10-21T17:01:23.270Z,8.43
2018-10-21T17:03:52.894Z,8.38
2018-10-21T17:06:22.520Z,8.31
2018-10-21T17:08:51.880Z,8.23
2018-10-21T17:11:21.372Z,8.17
2018-10-21T17:13:49.970Z,8.14
2018-10-21T17:16:18.634Z,8.09
2018-10-21T17:18:47.161Z,8.08
2018-10-21T17:21:16.724Z,8.03
2018-10-21T17:23:46.091Z,7.97
2018-10-21T17:26:16.350Z,7.91
2018-10-21T17:28:47.116Z,7.85
2018-10-21T17:31:16.585Z,7.78
2018-10-21T17:33:46.593Z,7.79
2018-10-21T17:36:17.240Z,7.74
2018-10-21T17:38:46.686Z,7.66
2018-10-21T17:41:16.748Z,7.60
2018-10-21T17:43:46.219Z,7.53
2018-10-21T17:46:16.622Z,7.45
2018-10-21T17:48:46.653Z,7.37
2018-10-21T17:51:15.834Z,7.31
2018-10-21T17:53:44.391Z,7.28
2018-10-21T17:56:14.335Z,7.25
2018-10-21T17:58:45.115Z,7.22
2018-10-21T18:01:14.552Z,7.18
2018-10-21T18:03:44.970Z,7.10
2018-10-21T18:06:14.552Z,7.09
2018-10-21T18:08:43.205Z,7.02
2018-10-21T18:11:11.779Z,6.96
2018-10-21T18:13:41.526Z,6.93
2018-10-21T18:16:11.169Z,6.89
2018-10-21T18:18:40.651Z,6.85
2018-10-21T18:21:10.121Z,6.80
2018-10-21T18:23:38.687Z,6.76
2018-10-21T18:26:08.364Z,6.73
2018-10-21T18:28:36.890Z,6.70
2018-10-21T18:31:05.722Z,6.68
2018-10-21T18:33:35.269Z,6.72
2018-10-21T18:36:04.768Z,6.72
2018-10-21T18:38:33.316Z,6.67
2018-10-21T18:41:02.024Z,6.61
2018-10-21T18:43:30.708Z,6.57
2018-10-21T18:45:59.285Z,6.56
2018-10-21T18:48:29.191Z,6.50
2018-10-21T18:50:57.800Z,6.44
2018-10-21T18:53:27.289Z,6.41
2018-10-21T18:55:56.904Z,6.34
2018-10-21T18:58:25.557Z,6.31
2018-10-21T19:00:55.148Z,6.30
2018-10-21T19:03:23.766Z,6.28
2018-10-21T19:05:53.278Z,6.27
2018-10-21T19:08:22.755Z,6.23
2018-10-21T19:10:52.202Z,6.23
2018-10-21T19:13:21.787Z,6.17
2018-10-21T19:15:51.346Z,6.14
2018-10-21T19:18:20.840Z,6.14
2018-10-21T19:20:49.420Z,6.02
2018-10-21T19:23:18.829Z,5.95
2018-10-21T19:25:48.395Z,5.91
2018-10-21T19:28:17.058Z,5.85
2018-10-21T19:30:46.306Z,5.80
2018-10-21T19:33:15.780Z,5.81
2018-10-21T19:35:44.329Z,5.76
2018-10-21T19:38:14.521Z,5.73
2018-10-21T19:40:43.544Z,5.71
2018-10-21T19:43:12.636Z,5.69
2018-10-21T19:45:41.128Z,5.69
2018-10-21T19:48:09.681Z,5.67
2018-10-21T19:50:38.466Z,5.67
2018-10-21T19:53:07.037Z,5.63
2018-10-21T19:55:35.625Z,5.62
2018-10-21T19:58:05.335Z,5.57
2018-10-21T20:00:34.889Z,5.57
2018-10-21T20:03:03.431Z,5.61
2018-10-21T20:05:31.997Z,5.64
2018-10-21T20:08:00.578Z,5.63
2018-10-21T20:10:30.160Z,5.62
2018-10-21T20:12:59.818Z,5.59
2018-10-21T20:15:29.263Z,5.56
2018-10-21T20:17:57.921Z,5.53
2018-10-21T20:20:27.491Z,5.57
2018-10-21T20:22:56.040Z,5.50
2018-10-21T20:25:24.618Z,5.45
2018-10-21T20:27:53.995Z,5.45
2018-10-21T20:30:22.613Z,5.52
2018-10-21T20:32:51.257Z,5.53
2018-10-21T20:35:21.065Z,5.53
2018-10-21T20:37:50.476Z,5.55
2018-10-21T20:40:19.118Z,5.54
2018-10-21T20:42:47.725Z,5.54
2018-10-21T20:45:17.738Z,5.52
2018-10-21T20:47:47.316Z,5.54
2018-10-21T20:50:16.218Z,5.56
2018-10-21T20:52:45.053Z,5.64
2018-10-21T20:55:14.984Z,5.56
2018-10-21T20:57:44.551Z,5.54
2018-10-21T21:00:14.696Z,5.49
2018-10-21T21:02:44.818Z,5.57
2018-10-21T21:05:14.047Z,5.57
2018-10-21T21:07:42.667Z,5.51
2018-10-21T21:10:11.263Z,5.49
2018-10-21T21:12:39.887Z,5.44
2018-10-21T21:15:09.466Z,5.39
2018-10-21T21:17:38.079Z,5.42
2018-10-21T21:20:07.301Z,5.35
2018-10-21T21:22:35.899Z,5.41
2018-10-21T21:25:04.484Z,5.43
2018-10-21T21:27:33.978Z,5.40
2018-10-21T21:30:02.587Z,5.35
2018-10-21T21:32:32.042Z,5.26
2018-10-21T21:35:00.607Z,5.37
2018-10-21T21:37:29.177Z,5.29
2018-10-21T21:39:58.905Z,5.22
2018-10-21T21:42:28.355Z,5.14
2018-10-21T21:44:57.813Z,5.16
2018-10-21T21:47:26.359Z,5.16
2018-10-21T21:49:54.926Z,5.17
2018-10-21T21:52:23.471Z,5.13
2018-10-21T21:54:52.994Z,5.04
2018-10-21T21:57:21.619Z,5.02
2018-10-21T21:59:50.205Z,4.98
2018-10-21T22:02:19.799Z,4.99
2018-10-21T22:04:48.405Z,4.94
2018-10-21T22:07:17.814Z,4.89
2018-10-21T22:09:51.751Z,4.87
2018-10-21T22:12:20.455Z,4.87
2018-10-21T22:14:48.961Z,4.83
2018-10-21T22:17:17.482Z,4.85
2018-10-21T22:19:46.653Z,4.87
2018-10-21T22:22:16.407Z,4.84
2018-10-21T22:24:45.956Z,4.81
2018-10-21T22:27:15.301Z,4.83
2018-10-21T22:29:44.160Z,4.79
2018-10-21T22:32:12.776Z,4.89
2018-10-21T22:34:41.427Z,4.88
2018-10-21T22:37:10.105Z,4.90
2018-10-21T22:39:39.742Z,4.83
2018-10-21T22:42:08.478Z,4.88
2018-10-21T22:44:37.070Z,4.84
2018-10-21T22:47:05.781Z,4.78
2018-10-21T22:49:34.328Z,4.79
2018-10-21T22:52:02.954Z,4.80
2018-10-21T22:54:31.518Z,4.79
2018-10-21T22:57:00.071Z,4.68
2018-10-21T22:59:28.638Z,4.63
2018-10-21T23:01:58.190Z,4.68
2018-10-21T23:04:26.744Z,4.62
2018-10-21T23:06:55.300Z,4.62
2018-10-21T23:09:23.878Z,4.56
2018-10-21T23:11:52.417Z,4.47
2018-10-21T23:14:20.953Z,4.53
2018-10-21T23:16:49.512Z,4.51
2018-10-21T23:19:29.272Z,4.52
2018-10-21T23:21:57.863Z,4.50
2018-10-21T23:24:26.607Z,4.50
2018-10-21T23:26:55.147Z,4.51
2018-10-21T23:29:23.661Z,4.49
2018-10-21T23:31:53.530Z,4.53
2018-10-21T23:34:22.090Z,4.47
2018-10-21T23:36:50.632Z,4.44
2018-10-21T23:39:19.214Z,4.38
2018-10-21T23:41:47.767Z,4.38
2018-10-21T23:44:16.668Z,4.37
2018-10-21T23:46:45.958Z,4.34
2018-10-21T23:49:15.388Z,4.36
2018-10-21T23:51:45.800Z,4.28
2018-10-21T23:54:15.988Z,4.29
2018-10-21T23:56:45.236Z,4.28
2018-10-21T23:59:14.910Z,4.29
